Time;durP1;ratioP1;P1;durP2;ratioP2;P2;SDS_P1;SDS_P2;PMS_P1;PMS_P2;Temp;Humidity;BMP_temperature;BMP_pressure;BME280_temperature;BME280_humidity;BME280_pressure;Samples;Min_cycle;Max_cycle;Signal;HPM_P1;HPM_P2
2023/01/27 00:00:02;;;;;;;275.83;70.88;;;-0.10;99.90;;;-1.54;100.00;97568.16;5073063;28;20411;-76
2023/01/27 00:02:28;;;;;;;276.23;70.60;;;-0.10;99.90;;;-1.54;100.00;97556.00;5080056;28;20908;-77
2023/01/27 00:04:54;;;;;;;276.15;68.15;;;-0.10;99.90;;;-1.53;100.00;97564.59;5075769;28;20523;-76
2023/01/27 00:07:20;;;;;;;255.38;68.30;;;-0.10;99.90;;;-1.56;100.00;97563.94;5080920;28;20418;-77
2023/01/27 00:09:45;;;;;;;264.52;67.90;;;-0.10;99.90;;;-1.57;100.00;97558.94;5087142;28;20446;-77
2023/01/27 00:15:07;;;;;;;245.30;60.70;;;-0.10;99.90;;;-1.58;100.00;97563.31;5085501;22;20478;-75
2023/01/27 00:17:33;;;;;;;250.32;61.72;;;-0.10;99.90;;;-1.61;100.00;97558.47;5077956;28;20418;-76
2023/01/27 00:19:59;;;;;;;211.10;54.63;;;-0.20;99.90;;;-1.63;100.00;97554.41;5092076;28;20402;-76
2023/01/27 00:25:10;;;;;;;236.07;58.83;;;-0.20;99.90;;;-1.63;100.00;97551.81;5071567;28;20497;-76
2023/01/27 00:27:36;;;;;;;228.40;60.60;;;-0.20;99.90;;;-1.60;100.00;97541.13;5071796;28;20911;-75
2023/01/27 00:30:04;;;;;;;258.15;60.72;;;-0.20;99.90;;;-1.61;100.00;97540.31;5071919;28;20439;-75
2023/01/27 00:35:17;;;;;;;214.48;54.70;;;-0.20;99.90;;;-1.64;100.00;97545.00;5070804;28;20437;-75
2023/01/27 00:37:43;;;;;;;245.35;62.25;;;-0.20;99.90;;;-1.65;100.00;97543.41;5071421;28;20408;-76
2023/01/27 00:40:11;;;;;;;222.40;55.55;;;-0.20;99.90;;;-1.65;100.00;97549.41;5071535;28;20400;-75
2023/01/27 00:42:37;;;;;;;217.90;57.80;;;-0.20;99.90;;;-1.65;100.00;97546.00;5071667;28;20398;-75
2023/01/27 00:47:51;;;;;;;241.83;60.50;;;-0.20;99.90;;;-1.69;100.00;97555.91;5071645;28;20484;-75
2023/01/27 00:50:17;;;;;;;213.52;56.53;;;-0.20;99.90;;;-1.70;100.00;97551.69;5069899;28;20404;-76
2023/01/27 00:52:44;;;;;;;237.85;62.38;;;-0.20;99.90;;;-1.66;100.00;97558.19;5071291;28;20453;-75
2023/01/27 00:55:11;;;;;;;204.95;52.88;;;-0.20;99.90;;;-1.67;100.00;97551.38;5070418;28;20412;-75
2023/01/27 00:57:37;;;;;;;255.10;61.53;;;-0.20;99.90;;;-1.65;100.00;97552.00;5066041;28;20452;-75
2023/01/27 01:00:03;;;;;;;220.38;59.40;;;-0.20;99.90;;;-1.66;100.00;97550.41;5070491;28;20461;-75
2023/01/27 01:02:29;;;;;;;251.88;60.50;;;-0.20;99.90;;;-1.65;100.00;97554.59;5064749;28;20504;-75
2023/01/27 01:04:56;;;;;;;223.38;60.95;;;-0.20;99.90;;;-1.64;100.00;97556.22;5070473;28;20806;-76
2023/01/27 01:07:22;;;;;;;219.27;58.15;;;-0.20;99.90;;;-1.63;100.00;97557.81;5070500;28;20466;-76
2023/01/27 01:09:48;;;;;;;222.02;61.13;;;-0.20;99.90;;;-1.63;100.00;97554.41;5070680;28;20447;-75
2023/01/27 01:12:14;;;;;;;229.03;60.53;;;-0.20;99.90;;;-1.64;100.00;97548.41;5070340;28;20394;-75
2023/01/27 01:14:40;;;;;;;202.75;55.40;;;-0.20;99.90;;;-1.61;100.00;97555.88;5070111;28;20907;-75
2023/01/27 01:17:06;;;;;;;269.30;67.60;;;-0.20;99.90;;;-1.54;100.00;97561.19;5070733;28;20403;-75
2023/01/27 01:19:32;;;;;;;220.88;59.28;;;-0.10;99.90;;;-1.58;100.00;97565.13;5070598;28;20769;-76
2023/01/27 01:21:59;;;;;;;261.90;64.40;;;-0.10;99.90;;;-1.59;100.00;97561.72;5070024;28;20499;-75
2023/01/27 01:24:25;;;;;;;263.83;66.55;;;-0.10;99.90;;;-1.60;100.00;97556.69;5070117;28;20419;-76
2023/01/27 01:26:51;;;;;;;239.73;62.88;;;-0.10;99.90;;;-1.60;100.00;97564.47;5070101;28;20411;-75
2023/01/27 01:29:17;;;;;;;267.73;66.43;;;-0.20;99.90;;;-1.59;100.00;97560.91;5069133;28;20997;-75
2023/01/27 01:31:43;;;;;;;231.35;59.33;;;-0.10;99.90;;;-1.57;100.00;97559.75;5069947;28;20414;-76
2023/01/27 01:34:09;;;;;;;240.95;62.75;;;-0.10;99.90;;;-1.57;100.00;97564.13;5069969;28;20412;-76
2023/01/27 01:36:34;;;;;;;256.83;66.67;;;-0.10;99.90;;;-1.55;100.00;97569.97;5069843;28;20461;-75
2023/01/27 01:39:02;;;;;;;227.00;62.38;;;-0.10;99.90;;;-1.56;100.00;97563.16;5069334;28;20438;-75
2023/01/27 01:41:28;;;;;;;265.90;67.43;;;-0.10;99.90;;;-1.57;100.00;97559.75;5068640;28;20574;-75
2023/01/27 01:43:54;;;;;;;242.27;62.70;;;-0.20;99.90;;;-1.59;100.00;97561.72;5070152;28;20430;-75
2023/01/27 01:46:20;;;;;;;266.98;65.45;;;-0.20;99.90;;;-1.59;100.00;97560.91;5069771;28;20770;-75
2023/01/27 01:48:50;;;;;;;241.47;60.87;;;-0.20;99.90;;;-1.59;100.00;97558.31;5068814;28;20876;-75
2023/01/27 01:51:21;;;;;;;196.57;52.63;;;-0.20;99.90;;;-1.58;100.00;97545.13;5069833;28;20931;-75
2023/01/27 01:53:54;;;;;;;207.77;55.90;;;-0.20;99.90;;;-1.59;100.00;97545.34;5069641;28;20436;-75
2023/01/27 01:56:25;;;;;;;216.95;56.33;;;-0.20;99.90;;;-1.60;100.00;97543.72;5069980;28;20399;-75
2023/01/27 01:58:54;;;;;;;225.10;57.13;;;-0.20;99.90;;;-1.61;100.00;97532.53;5069693;28;21051;-75
2023/01/27 02:01:20;;;;;;;215.10;55.10;;;-0.20;99.90;;;-1.59;100.00;97540.16;5069270;28;20408;-76
2023/01/27 02:03:52;;;;;;;212.82;51.92;;;-0.20;99.90;;;-1.59;100.00;97540.16;5069433;28;20472;-75
2023/01/27 02:06:18;;;;;;;214.20;52.85;;;-0.20;99.90;;;-1.59;100.00;97529.75;5068859;28;20777;-76
2023/01/27 02:08:47;;;;;;;186.13;45.83;;;-0.20;99.90;;;-1.58;100.00;97523.59;5070157;28;20499;-75
2023/01/27 02:11:13;;;;;;;201.60;50.38;;;-0.10;99.90;;;-1.58;100.00;97526.97;5069865;28;20901;-76
2023/01/27 02:13:41;;;;;;;195.85;52.00;;;-0.10;99.90;;;-1.57;100.00;97528.59;5069558;28;20423;-75
2023/01/27 02:16:09;;;;;;;184.80;46.47;;;-0.10;99.90;;;-1.55;100.00;97525.84;5069679;28;20776;-76
2023/01/27 02:18:36;;;;;;;173.63;43.83;;;-0.10;99.90;;;-1.58;100.00;97526.19;5069476;28;20435;-76
2023/01/27 02:21:03;;;;;;;180.65;44.38;;;-0.10;99.90;;;-1.57;100.00;97520.00;5069786;28;20494;-76
2023/01/27 02:23:45;;;;;;;191.43;48.20;;;-0.10;99.90;;;-1.58;100.00;97523.59;5069371;28;20439;-76
2023/01/27 02:26:17;;;;;;;171.38;46.25;;;-0.20;99.90;;;-1.63;100.00;97521.50;5069719;28;20412;-76
2023/01/27 02:28:44;;;;;;;179.70;47.92;;;-0.20;99.90;;;-1.64;100.00;97522.47;5069688;28;20431;-76
2023/01/27 02:31:10;;;;;;;171.53;45.43;;;-0.20;99.90;;;-1.65;100.00;97523.44;5069900;28;20823;-76
2023/01/27 02:33:36;;;;;;;157.52;44.20;;;-0.20;99.90;;;-1.66;100.00;97521.84;5069546;28;20443;-76
2023/01/27 02:36:08;;;;;;;175.47;47.33;;;-0.20;99.90;;;-1.63;100.00;97524.09;5069756;28;20802;-76
2023/01/27 02:38:39;;;;;;;169.57;43.05;;;-0.20;99.90;;;-1.62;100.00;97515.31;5069694;28;20472;-75
2023/01/27 02:41:12;;;;;;;159.10;42.50;;;-0.20;99.90;;;-1.62;100.00;97517.13;5069425;28;20407;-75
2023/01/27 02:43:40;;;;;;;169.20;43.05;;;-0.20;99.90;;;-1.63;100.00;97518.91;5068524;28;20409;-75
2023/01/27 02:46:06;;;;;;;175.60;44.28;;;-0.20;99.90;;;-1.60;100.00;97515.97;5069674;28;20466;-75
2023/01/27 02:48:32;;;;;;;192.52;47.70;;;-0.20;99.90;;;-1.63;100.00;97526.69;5069386;28;20804;-75
2023/01/27 02:50:58;;;;;;;177.27;46.03;;;-0.20;99.90;;;-1.61;100.00;97523.94;5069426;28;20416;-75
2023/01/27 02:53:24;;;;;;;160.63;44.17;;;-0.20;99.90;;;-1.61;100.00;97524.72;5069347;28;20860;-75
2023/01/27 02:55:50;;;;;;;161.02;40.63;;;-0.20;99.90;;;-1.58;100.00;97518.41;5069516;28;20460;-75
2023/01/27 02:58:16;;;;;;;170.37;44.10;;;-0.20;99.90;;;-1.52;100.00;97524.69;5069319;28;20885;-75
2023/01/27 03:00:43;;;;;;;154.98;42.00;;;-0.10;99.90;;;-1.58;100.00;97526.19;5069148;28;20408;-75
2023/01/27 03:03:09;;;;;;;150.30;41.75;;;-0.20;99.90;;;-1.62;100.00;97524.91;5068943;28;20411;-75
2023/01/27 03:05:35;;;;;;;154.93;41.10;;;-0.20;99.90;;;-1.64;100.00;97519.88;5069337;28;20415;-75
2023/01/27 03:08:01;;;;;;;145.90;41.45;;;-0.20;99.90;;;-1.65;100.00;97505.28;5069333;28;20423;-75
2023/01/27 03:10:27;;;;;;;139.23;41.25;;;-0.20;99.90;;;-1.65;100.00;97510.47;5067925;28;20465;-75
2023/01/27 03:12:53;;;;;;;157.65;43.10;;;-0.20;99.90;;;-1.65;100.00;97513.06;5069365;28;20435;-75
2023/01/27 03:18:14;;;;;;;156.25;42.88;;;-0.20;99.90;;;-1.66;100.00;97514.06;5072934;28;20385;-75
2023/01/27 03:20:43;;;;;;;151.63;41.45;;;-0.20;99.90;;;-1.65;100.00;97522.63;5072895;28;20907;-75
2023/01/27 03:23:10;;;;;;;167.45;44.25;;;-0.20;99.90;;;-1.66;100.00;97513.25;5072834;28;20458;-75
2023/01/27 03:25:41;;;;;;;160.77;44.38;;;-0.20;99.90;;;-1.66;100.00;97521.84;5072625;28;20446;-75
2023/01/27 03:28:07;;;;;;;204.88;51.17;;;-0.20;99.90;;;-1.65;100.00;97515.66;5073117;28;20404;-75
2023/01/27 03:30:33;;;;;;;181.88;48.03;;;-0.20;99.90;;;-1.68;100.00;97513.44;5072614;28;20404;-75
2023/01/27 03:32:59;;;;;;;173.88;46.50;;;-0.20;99.90;;;-1.66;100.00;97519.25;5072919;28;20777;-75
2023/01/27 03:35:32;;;;;;;192.50;51.42;;;-0.20;99.90;;;-1.67;100.00;97522.84;5072175;28;20889;-75
2023/01/27 03:46:19;;;;;;;173.68;49.60;;;-0.20;99.90;;;-1.63;100.00;97528.47;5072547;28;20423;-76
2023/01/27 03:48:49;;;;;;;174.00;52.38;;;-0.20;99.90;;;-1.63;100.00;97533.66;5072546;28;20403;-75
2023/01/27 03:51:18;;;;;;;202.40;54.38;;;-0.20;99.90;;;-1.62;100.00;97530.09;5072140;28;20411;-75
2023/01/27 03:53:44;;;;;;;187.40;54.15;;;-0.20;99.90;;;-1.62;100.00;97532.69;5072451;28;20753;-75
2023/01/27 03:56:10;;;;;;;174.50;52.47;;;-0.20;99.90;;;-1.60;100.00;97535.94;5072232;28;20404;-75
2023/01/27 03:58:36;;;;;;;199.20;57.92;;;-0.20;99.90;;;-1.60;100.00;97536.75;5072222;28;20426;-75
2023/01/27 04:01:05;;;;;;;206.60;58.40;;;-0.20;99.90;;;-1.59;100.00;97537.53;5072199;28;20407;-75
2023/01/27 04:09:10;;;;;;;201.00;58.05;;;-0.20;99.90;;;-1.60;100.00;97535.94;5072429;28;20434;-76
2023/01/27 04:11:55;;;;;;;207.10;60.27;;;-0.20;99.90;;;-1.62;100.00;97535.28;5071870;28;20411;-75
2023/01/27 04:14:22;;;;;;;223.57;61.03;;;-0.20;99.90;;;-1.60;100.00;97533.34;5070225;28;20418;-75
2023/01/27 04:16:50;;;;;;;219.88;63.28;;;-0.20;99.90;;;-1.61;100.00;97539.50;5071578;28;20399;-75
2023/01/27 04:19:16;;;;;;;229.13;63.00;;;-0.20;99.90;;;-1.62;100.00;97536.09;5071778;28;20404;-75
2023/01/27 04:21:43;;;;;;;225.57;67.70;;;-0.20;99.90;;;-1.60;100.00;97538.53;5071640;28;20411;-75
2023/01/27 04:24:15;;;;;;;252.13;72.80;;;-0.20;99.90;;;-1.63;100.00;97534.47;5071492;28;20757;-75
2023/01/27 04:26:45;;;;;;;259.80;75.05;;;-0.20;99.90;;;-1.60;100.00;97543.72;5071190;28;20426;-75
2023/01/27 04:29:12;;;;;;;261.90;72.43;;;-0.20;99.90;;;-1.60;100.00;97549.72;5071292;28;20946;-75
2023/01/27 04:31:38;;;;;;;236.23;72.72;;;-0.20;99.90;;;-1.63;100.00;97544.03;5071376;28;20456;-75
2023/01/27 04:34:04;;;;;;;231.32;70.00;;;-0.20;99.90;;;-1.63;100.00;97549.22;5071428;28;20769;-75
2023/01/27 04:36:30;;;;;;;246.07;72.35;;;-0.20;99.90;;;-1.65;100.00;97549.41;5071363;28;20888;-75
2023/01/27 04:38:57;;;;;;;251.37;70.93;;;-0.20;99.90;;;-1.63;100.00;97555.22;5071620;28;20469;-75
2023/01/27 04:41:23;;;;;;;282.20;80.25;;;-0.20;99.90;;;-1.63;100.00;97544.84;5071450;28;20416;-75
2023/01/27 04:43:49;;;;;;;254.95;74.00;;;-0.20;99.90;;;-1.63;100.00;97549.22;5070370;28;20399;-76
2023/01/27 04:46:15;;;;;;;251.85;76.05;;;-0.20;99.90;;;-1.63;100.00;97546.63;5070646;28;20494;-75
2023/01/27 04:48:41;;;;;;;231.35;71.70;;;-0.20;99.90;;;-1.65;100.00;97539.00;5071148;28;20819;-76
2023/01/27 04:51:07;;;;;;;246.25;73.78;;;-0.20;99.90;;;-1.63;100.00;97538.84;5070970;28;20404;-74
2023/01/27 04:53:33;;;;;;;269.42;78.95;;;-0.20;99.90;;;-1.63;100.00;97544.03;5062612;28;20434;-75
2023/01/27 04:56:12;;;;;;;261.50;76.55;;;-0.20;99.90;;;-1.64;100.00;97542.41;5067168;28;20418;-75
2023/01/27 04:58:38;;;;;;;263.05;81.00;;;-0.20;99.90;;;-1.64;100.00;97556.22;5065871;28;20403;-75
2023/01/27 05:01:04;;;;;;;274.95;80.15;;;-0.20;99.90;;;-1.61;100.00;97557.66;5083637;28;20823;-75
2023/01/27 05:03:30;;;;;;;293.33;84.28;;;-0.20;99.90;;;-1.60;100.00;97549.72;5065061;28;20408;-75
2023/01/27 05:05:56;;;;;;;239.43;77.37;;;-0.20;99.90;;;-1.63;100.00;97547.44;5066820;28;20477;-75
2023/01/27 05:08:22;;;;;;;256.42;75.47;;;-0.20;99.90;;;-1.66;100.00;97544.41;5060555;28;20404;-76
2023/01/27 05:10:48;;;;;;;240.10;76.90;;;-0.20;99.90;;;-1.66;100.00;97553.00;5062522;28;20534;-76
2023/01/27 05:13:15;;;;;;;277.27;79.85;;;-0.20;99.90;;;-1.67;100.00;97548.78;5061023;28;20471;-76
2023/01/27 05:15:47;;;;;;;276.60;79.97;;;-0.20;99.90;;;-1.64;100.00;97548.41;5064444;28;22268;-75
2023/01/27 05:18:13;;;;;;;237.77;74.53;;;-0.20;99.90;;;-1.66;100.00;97555.59;5064283;28;20406;-75
2023/01/27 05:20:39;;;;;;;245.07;76.07;;;-0.20;99.90;;;-1.64;100.00;97556.22;5067822;28;20739;-74
2023/01/27 05:25:50;;;;;;;303.77;84.60;;;-0.20;99.90;;;-1.61;100.00;97539.50;5064320;28;20415;-74
2023/01/27 05:28:17;;;;;;;278.05;83.20;;;-0.20;99.90;;;-1.65;100.00;97535.59;5064683;28;20461;-75
2023/01/27 05:30:43;;;;;;;276.58;80.75;;;-0.20;99.90;;;-1.69;100.00;97542.94;5068826;28;20915;-74
2023/01/27 05:33:09;;;;;;;236.07;72.53;;;-0.30;99.90;;;-1.69;100.00;97555.91;5070032;28;20497;-74
2023/01/27 05:35:35;;;;;;;248.40;74.63;;;-0.20;99.90;;;-1.66;100.00;97557.38;5070148;28;20399;-78
2023/01/27 05:38:01;;;;;;;283.80;79.93;;;-0.20;99.90;;;-1.64;100.00;97564.00;5070404;28;20403;-76
2023/01/27 05:40:28;;;;;;;244.38;74.10;;;-0.20;99.90;;;-1.61;100.00;97565.44;5062411;28;20414;-76
2023/01/27 05:42:54;;;;;;;274.90;78.53;;;-0.20;99.90;;;-1.60;100.00;97565.28;5055795;28;20464;-76
2023/01/27 05:45:21;;;;;;;263.88;76.35;;;-0.20;99.90;;;-1.59;100.00;97582.47;5061261;28;20905;-76
2023/01/27 05:47:50;;;;;;;261.20;78.43;;;-0.20;99.90;;;-1.57;100.00;97587.47;5069733;28;20418;-76
2023/01/27 05:50:17;;;;;;;291.35;80.97;;;-0.10;99.90;;;-1.58;100.00;97586.66;5068653;28;20484;-76
2023/01/27 05:52:43;;;;;;;289.05;80.28;;;-0.10;99.90;;;-1.57;100.00;97584.88;5069698;28;20911;-76
2023/01/27 05:55:09;;;;;;;283.35;76.70;;;-0.10;99.90;;;-1.54;100.00;97583.75;5067790;28;20415;-76
2023/01/27 05:57:35;;;;;;;280.00;78.05;;;-0.10;99.90;;;-1.51;100.00;97575.63;5055635;28;20769;-76
2023/01/27 06:00:01;;;;;;;282.17;77.57;;;-0.10;99.90;;;-1.49;100.00;97568.47;5069839;28;20914;-76
2023/01/27 06:02:32;;;;;;;247.25;75.47;;;-0.10;99.90;;;-1.48;100.00;97575.28;5057392;28;20874;-78
2023/01/27 06:04:57;;;;;;;262.38;73.10;;;-0.10;99.90;;;-1.43;100.00;97578.19;5082261;28;20486;-76
2023/01/27 06:07:23;;;;;;;256.20;73.17;;;-0.10;99.90;;;-1.45;100.00;97577.53;5069931;28;20405;-75
2023/01/27 06:09:49;;;;;;;296.25;79.03;;;0.00;99.90;;;-1.45;100.00;97582.72;5063852;28;20486;-77
2023/01/27 06:12:15;;;;;;;251.53;70.67;;;0.00;99.90;;;-1.49;100.00;97578.84;5066926;28;20414;-76
2023/01/27 06:14:41;;;;;;;282.73;77.55;;;-0.10;99.90;;;-1.52;100.00;97580.00;5083874;22;20745;-78
2023/01/27 06:17:07;;;;;;;258.43;68.43;;;-0.10;99.90;;;-1.52;100.00;97580.00;5069301;28;20416;-79
2023/01/27 06:19:34;;;;;;;259.00;71.82;;;-0.10;99.90;;;-1.54;100.00;97576.75;5069772;28;20494;-79
2023/01/27 06:22:01;;;;;;;294.58;78.07;;;-0.10;99.90;;;-1.56;100.00;97568.34;5069644;28;20415;-80
2023/01/27 06:24:27;;;;;;;291.00;78.13;;;-0.10;99.90;;;-1.58;100.00;97578.88;5066901;28;20411;-81
2023/01/27 06:26:54;;;;;;;254.32;72.38;;;-0.10;99.90;;;-1.57;100.00;97579.69;5069917;28;20792;-79
2023/01/27 06:29:21;;;;;;;249.35;70.60;;;-0.20;99.90;;;-1.58;100.00;97581.47;5075087;28;20406;-78
2023/01/27 06:31:46;;;;;;;252.75;71.95;;;-0.10;99.90;;;-1.56;100.00;97574.34;5077866;28;20417;-79
2023/01/27 06:34:12;;;;;;;257.42;71.57;;;-0.10;99.90;;;-1.55;100.00;97580.34;5068341;28;20754;-78
2023/01/27 06:36:39;;;;;;;286.45;74.45;;;-0.10;99.90;;;-1.54;100.00;97576.75;5068938;28;20719;-78
2023/01/27 06:39:05;;;;;;;259.80;74.68;;;-0.10;99.90;;;-1.58;100.00;97581.47;5069548;28;20900;-78
2023/01/27 06:41:31;;;;;;;286.17;74.50;;;-0.10;99.90;;;-1.60;100.00;97585.25;5074453;28;20415;-79
2023/01/27 06:43:57;;;;;;;235.93;66.13;;;-0.20;99.90;;;-1.59;100.00;97586.88;5069166;28;20434;-79
2023/01/27 06:46:23;;;;;;;251.75;70.68;;;-0.20;99.90;;;-1.59;100.00;97589.47;5045635;28;20427;-79
2023/01/27 06:48:49;;;;;;;261.60;73.63;;;-0.20;99.90;;;-1.58;100.00;97593.66;5079986;28;20499;-79
2023/01/27 06:51:15;;;;;;;243.68;67.22;;;-0.20;99.90;;;-1.59;100.00;97598.06;5083248;28;20416;-79
2023/01/27 06:53:42;;;;;;;261.95;71.22;;;-0.10;99.90;;;-1.57;100.00;97603.84;5084957;28;20415;-78
2023/01/27 06:56:08;;;;;;;235.73;65.13;;;-0.10;99.90;;;-1.54;100.00;97604.50;5073219;28;20892;-79
2023/01/27 06:58:34;;;;;;;255.70;70.32;;;-0.10;99.90;;;-1.54;100.00;97614.88;5073193;28;20404;-79
2023/01/27 07:01:00;;;;;;;252.10;69.00;;;-0.10;99.90;;;-1.55;100.00;97611.47;5073553;28;20464;-79
2023/01/27 07:03:26;;;;;;;260.35;69.68;;;-0.10;99.90;;;-1.55;100.00;97608.88;5072996;28;20912;-79
2023/01/27 07:05:52;;;;;;;254.07;69.45;;;-0.10;99.90;;;-1.53;100.00;97619.91;5072852;28;20553;-77
2023/01/27 07:08:18;;;;;;;248.60;69.38;;;-0.10;99.90;;;-1.53;100.00;97624.31;5073133;28;20410;-80
2023/01/27 07:10:45;;;;;;;238.75;66.53;;;-0.10;99.90;;;-1.53;100.00;97632.91;5073320;28;20439;-77
2023/01/27 07:13:13;;;;;;;260.25;72.47;;;-0.10;99.90;;;-1.51;100.00;97630.94;5072962;28;20411;-78
2023/01/27 07:15:40;;;;;;;243.90;68.45;;;-0.10;99.90;;;-1.53;100.00;97634.69;5072399;28;20403;-78
2023/01/27 07:18:06;;;;;;;240.10;68.43;;;-0.10;99.90;;;-1.53;100.00;97645.88;5073011;28;20461;-78
2023/01/27 07:20:32;;;;;;;229.45;68.10;;;-0.10;99.90;;;-1.57;100.00;97645.38;5073123;28;20774;-78
2023/01/27 07:23:00;;;;;;;212.67;65.00;;;-0.20;99.90;;;-1.60;100.00;97645.75;5073105;28;20431;-78
2023/01/27 07:25:27;;;;;;;214.85;62.78;;;-0.20;99.90;;;-1.60;100.00;97653.53;5072648;28;20477;-78
2023/01/27 07:27:56;;;;;;;222.80;63.72;;;-0.20;99.90;;;-1.58;100.00;97650.78;5072756;28;20504;-78
2023/01/27 07:30:22;;;;;;;220.75;63.42;;;-0.20;99.90;;;-1.62;100.00;97639.91;5072872;28;20491;-78
2023/01/27 07:32:49;;;;;;;235.50;64.43;;;-0.20;99.90;;;-1.55;100.00;97655.59;5072677;28;20407;-80
2023/01/27 07:35:15;;;;;;;230.82;64.18;;;-0.10;99.90;;;-1.51;100.00;97650.91;5072315;28;20917;-78
2023/01/27 07:37:41;;;;;;;205.68;59.05;;;-0.10;99.90;;;-1.52;100.00;97652.69;5072938;28;20431;-79
2023/01/27 07:40:09;;;;;;;216.75;60.35;;;-0.10;99.90;;;-1.53;100.00;97658.84;5072297;28;20909;-80
2023/01/27 07:42:35;;;;;;;225.40;60.28;;;-0.10;99.90;;;-1.50;100.00;97655.13;5072546;28;20465;-79
2023/01/27 07:45:03;;;;;;;211.57;59.05;;;-0.10;99.90;;;-1.46;100.00;97659.78;5072016;28;20495;-79
2023/01/27 07:47:29;;;;;;;189.23;54.28;;;-0.10;99.90;;;-1.47;100.00;97649.56;5069827;28;20413;-79
2023/01/27 07:49:55;;;;;;;201.93;54.47;;;-0.10;99.90;;;-1.45;100.00;97656.22;5060602;28;20408;-79
2023/01/27 07:52:21;;;;;;;214.77;59.17;;;-0.10;99.90;;;-1.43;100.00;97659.47;5052518;28;20404;-83
2023/01/27 07:54:47;;;;;;;204.57;58.53;;;0.00;99.90;;;-1.42;100.00;97663.66;5072424;28;20847;-82
2023/01/27 07:57:13;;;;;;;175.93;51.80;;;0.00;99.90;;;-1.39;100.00;97665.13;5058223;28;20416;-83
2023/01/27 07:59:39;;;;;;;188.82;54.58;;;0.00;99.90;;;-1.40;100.00;97676.47;5081049;28;20411;-82
2023/01/27 08:02:08;;;;;;;198.65;56.63;;;0.00;99.90;;;-1.41;100.00;97677.47;5081040;28;20469;-82
2023/01/27 08:04:34;;;;;;;190.32;58.75;;;0.00;99.90;;;-1.43;100.00;97684.63;5082259;28;20410;-81
2023/01/27 08:07:00;;;;;;;189.45;56.13;;;0.00;99.90;;;-1.44;100.00;97681.22;5086592;28;20416;-81
2023/01/27 08:09:26;;;;;;;190.55;52.72;;;0.00;99.90;;;-1.44;100.00;97672.63;5065900;28;20417;-81
2023/01/27 08:11:52;;;;;;;180.90;52.03;;;-0.10;99.90;;;-1.42;100.00;97673.22;5063828;28;20409;-82
2023/01/27 08:14:18;;;;;;;178.52;51.08;;;0.00;99.90;;;-1.43;100.00;97666.44;5058432;28;20414;-83
2023/01/27 08:16:44;;;;;;;183.95;51.70;;;0.00;99.90;;;-1.41;100.00;97675.66;5075118;28;20408;-83
2023/01/27 08:19:12;;;;;;;182.45;52.53;;;0.00;99.90;;;-1.40;100.00;97674.69;5079174;28;20407;-81
2023/01/27 08:21:37;;;;;;;182.40;52.13;;;0.00;99.90;;;-1.40;100.00;97681.69;5062901;28;20404;-81
2023/01/27 08:24:04;;;;;;;179.18;50.60;;;0.00;99.90;;;-1.40;100.00;97681.69;5073797;28;20834;-81
2023/01/27 08:26:30;;;;;;;182.52;52.65;;;0.00;99.90;;;-1.37;100.00;97678.75;5069742;28;20810;-78
2023/01/27 08:28:56;;;;;;;180.30;52.93;;;0.00;99.90;;;-1.40;100.00;97681.69;5055046;28;20448;-77
2023/01/27 08:31:22;;;;;;;159.65;47.47;;;0.00;99.90;;;-1.36;100.00;97690.75;5071483;28;20404;-77
2023/01/27 08:33:51;;;;;;;180.03;50.93;;;0.00;99.90;;;-1.37;100.00;97697.75;5071795;28;20402;-76
2023/01/27 08:36:20;;;;;;;167.68;49.33;;;0.00;99.90;;;-1.34;100.00;97692.19;5070170;28;20418;-77
2023/01/27 08:38:48;;;;;;;170.10;48.85;;;0.10;99.90;;;-1.32;100.00;97695.44;5067978;28;20482;-76
2023/01/27 08:41:17;;;;;;;175.90;52.17;;;0.10;99.90;;;-1.32;100.00;97698.03;5071453;28;20419;-75
2023/01/27 08:43:43;;;;;;;194.27;56.92;;;0.10;99.90;;;-1.30;100.00;97701.28;5071307;28;20885;-76
2023/01/27 08:46:09;;;;;;;182.82;53.03;;;0.10;99.90;;;-1.28;100.00;97699.31;5069980;28;20504;-75
2023/01/27 08:48:36;;;;;;;173.35;48.13;;;0.10;99.90;;;-1.25;100.00;97698.16;5071360;28;20465;-76
2023/01/27 08:51:04;;;;;;;171.38;50.25;;;0.10;99.90;;;-1.26;100.00;97709.53;5072148;28;20873;-81
2023/01/27 08:53:33;;;;;;;178.85;51.42;;;0.10;99.90;;;-1.28;100.00;97706.31;5055464;28;20908;-77
2023/01/27 08:56:04;;;;;;;169.52;47.85;;;0.10;99.90;;;-1.28;100.00;97703.72;5071171;28;20942;-79
2023/01/27 08:58:32;;;;;;;168.77;45.53;;;0.10;99.90;;;-1.26;100.00;97701.75;5068463;28;20910;-77
2023/01/27 09:01:00;;;;;;;170.00;46.33;;;0.10;99.90;;;-1.26;100.00;97707.75;5069554;28;20414;-78
2023/01/27 09:03:26;;;;;;;177.60;50.17;;;0.10;99.90;;;-1.22;100.00;97718.63;5071277;28;20404;-78
2023/01/27 09:05:52;;;;;;;167.70;49.57;;;0.20;99.90;;;-1.23;100.00;97712.63;5073178;28;20454;-77
2023/01/27 09:08:17;;;;;;;168.15;45.85;;;0.20;99.90;;;-1.24;100.00;97717.97;5070912;28;20407;-79
2023/01/27 09:10:45;;;;;;;147.83;43.23;;;0.10;99.90;;;-1.20;100.00;97720.03;5071459;28;20474;-77
2023/01/27 09:13:11;;;;;;;163.95;46.75;;;0.10;99.90;;;-1.25;100.00;97718.94;5070927;28;20548;-82
2023/01/27 09:15:37;;;;;;;167.00;45.83;;;0.20;99.90;;;-1.27;100.00;97705.31;5070757;28;20411;-80
2023/01/27 09:18:04;;;;;;;163.20;50.38;;;0.10;99.90;;;-1.30;100.00;97711.66;5071061;28;20764;-80
2023/01/27 09:20:30;;;;;;;173.82;48.47;;;0.10;99.90;;;-1.30;100.00;97706.47;5071164;28;20399;-77
2023/01/27 09:22:57;;;;;;;161.07;45.22;;;0.10;99.90;;;-1.29;100.00;97709.88;5070616;28;20523;-78
2023/01/27 09:25:23;;;;;;;164.85;44.83;;;0.10;99.90;;;-1.31;100.00;97715.25;5070490;28;20510;-77
2023/01/27 09:27:55;;;;;;;161.40;41.85;;;0.10;99.90;;;-1.31;100.00;97709.22;5070610;28;20490;-76
2023/01/27 09:30:21;;;;;;;158.25;42.33;;;0.10;99.90;;;-1.32;100.00;97705.81;5070613;28;20411;-76
2023/01/27 09:32:48;;;;;;;167.80;42.90;;;0.10;99.90;;;-1.27;100.00;97706.13;5074019;28;20930;-79
2023/01/27 09:35:14;;;;;;;164.23;41.78;;;0.10;99.90;;;-1.23;100.00;97717.81;5062758;28;20924;-79
2023/01/27 09:37:46;;;;;;;172.33;45.07;;;0.10;99.90;;;-1.19;100.00;97705.28;5066658;28;20879;-81
2023/01/27 09:40:29;;;;;;;159.52;45.20;;;0.20;99.90;;;-1.26;100.00;97709.53;5071242;28;20403;-78
2023/01/27 09:43:34;;;;;;;164.15;41.10;;;0.10;99.90;;;-1.22;100.00;97710.81;5071665;28;20439;-77
2023/01/27 09:46:20;;;;;;;169.13;43.83;;;0.10;99.90;;;-1.18;100.00;97720.69;5071160;28;20419;-80
2023/01/27 09:49:13;;;;;;;164.40;41.95;;;0.20;99.90;;;-1.12;100.00;97716.59;5071635;28;20412;-80
2023/01/27 09:51:52;;;;;;;174.68;41.95;;;0.20;99.90;;;-1.07;100.00;97718.72;5077941;28;20498;-83
2023/01/27 09:54:41;;;;;;;181.10;46.25;;;0.30;99.90;;;-1.06;100.00;97710.75;5072528;28;20407;-79
2023/01/27 09:57:16;;;;;;;177.82;44.28;;;0.30;99.90;;;-1.05;100.00;97724.56;5052334;28;20407;-76
2023/01/27 10:00:10;;;;;;;178.65;47.10;;;0.30;99.90;;;-1.05;100.00;97720.16;5063723;28;20418;-83
2023/01/27 10:03:13;;;;;;;190.23;46.07;;;0.30;99.90;;;-1.05;100.00;97730.53;5210451;22;20557;-80
2023/01/27 10:06:24;;;;;;;179.35;41.78;;;0.30;99.90;;;-1.01;100.00;97712.84;5042999;28;20580;-80
2023/01/27 10:09:34;;;;;;;182.20;43.47;;;0.40;99.90;;;-0.97;100.00;97714.91;5040678;28;20467;-78
2023/01/27 10:12:16;;;;;;;236.93;65.82;;;0.40;99.90;;;-0.98;100.00;97717.69;5052539;28;20914;-82
2023/01/27 10:14:55;;;;;;;219.73;48.58;;;0.40;99.90;;;-0.98;100.00;97721.13;5056066;28;20422;-87
2023/01/27 10:17:36;;;;;;;217.45;45.88;;;0.40;99.90;;;-0.97;100.00;97730.50;5064691;28;20832;-77
2023/01/27 10:20:26;;;;;;;211.68;46.50;;;0.40;99.90;;;-0.95;100.00;97725.94;5050400;28;20429;-78
2023/01/27 10:23:12;;;;;;;203.48;42.92;;;0.40;99.90;;;-0.94;100.00;97719.78;5064466;28;20429;-81
2023/01/27 10:25:51;;;;;;;190.25;40.95;;;0.40;99.90;;;-0.84;100.00;97714.38;5050216;28;20428;-79
2023/01/27 10:28:22;;;;;;;218.38;46.53;;;0.50;99.90;;;-0.84;100.00;97711.78;5051724;28;20401;-82
2023/01/27 10:30:54;;;;;;;197.43;43.55;;;0.50;99.90;;;-0.82;100.00;97705.41;5050530;28;20409;-79